Flight Track Log - Related Links

Times and Time Zones

All times are in EDT time to prevent confusion due to time zone crossing. See the FDX1570 flight status page for this flight to view local times or setup timezone preferences in your user account.

Time Position Orientation Groundspeed Altitude Reporting Facility
EDT Latitude Longitude Course Direction KTS MPH feet Rate Location/Type
Wed 04:38:42 AM 35.0333 -89.9667 180° South 176 203 1,200  Level KMEM
Wed 04:39:24 AM 35.0000 -89.9667 180° South 174 200 2,500 2,000 Climbing KMEM
Wed 04:40:24 AM 34.9333 -89.9333 158° South 272 313 4,600 2,484 Climbing KMEM
Wed 04:41:32 AM 34.9333 -89.8333 90° East 315 362 7,800 2,854 Climbing KMEM
Wed 04:42:07 AM 34.9581 -89.7769 62° Northeast 310 357 9,500 2,147 Climbing Memphis Center
Wed 04:43:07 AM 34.9992 -89.6853 61° Northeast 345 397 11,200 1,733 Climbing Memphis Center
Wed 04:45:07 AM 35.0939 -89.4714 62° Northeast 382 440 14,700 1,933 Climbing Memphis Center
Wed 04:46:07 AM 35.1472 -89.3489 62° Northeast 387 445 17,000 2,050 Climbing Memphis Center
Wed 04:47:07 AM 35.2025 -89.2236 62° Northeast 411 473 18,800 2,050 Climbing Memphis Center
Wed 04:48:07 AM 35.2617 -89.0933 61° Northeast 421 484 21,100 2,000 Climbing Memphis Center
Wed 04:49:07 AM 35.3292 -88.9700 56° Northeast 428 493 22,800 1,817 Climbing Memphis Center
Wed 04:55:13 AM 35.7630 -88.1220 56° Northeast 474 545 34,000 1,826 Climbing FlightAware ADS-B
Wed 04:56:01 AM 35.8180 -88.0130 58° Northeast 469 540 35,400 1,674 Climbing FlightAware ADS-B
Wed 04:56:39 AM 35.8610 -87.9270 58° Northeast 466 536 36,400 1,537 Climbing FlightAware ADS-B
Wed 04:57:23 AM 35.9120 -87.8260 58° Northeast 461 531 37,500 1,535 Climbing FlightAware ADS-B
Wed 04:58:05 AM 35.9580 -87.7320 59° Northeast 452 520 38,600 1,047 Climbing FlightAware ADS-B
Wed 04:58:49 AM 36.0070 -87.6360 58° Northeast 454 522 39,000 286 Climbing FlightAware ADS-B
Wed 04:59:29 AM 36.0500 -87.5490 59° Northeast 455 524 39,000  Level FlightAware ADS-B
Wed 04:59:53 AM 36.0770 -87.4960 58° Northeast 456 525 39,000  Level FlightAware ADS-B
Wed 05:00:42 AM 36.1250 -87.3980 59° Northeast 457 526 39,000  Level FlightAware ADS-B
Wed 05:01:27 AM 36.1710 -87.3040 59° Northeast 456 525 39,000  Level FlightAware ADS-B
Wed 05:02:11 AM 36.2290 -87.1870 58° Northeast 454 522 39,000  Level FlightAware ADS-B
Wed 05:02:57 AM 36.2780 -87.0870 59° Northeast 452 520 39,000  Level FlightAware ADS-B
Wed 05:03:37 AM 36.3220 -86.9960 59° Northeast 450 518 39,000  Level FlightAware ADS-B
Wed 05:04:20 AM 36.3680 -86.9040 58° Northeast 449 517 39,000  Level FlightAware ADS-B
Wed 05:05:00 AM 36.4110 -86.8150 59° Northeast 448 516 39,000  Level FlightAware ADS-B
Wed 05:05:36 AM 36.4500 -86.7340 59° Northeast 446 513 39,000  Level FlightAware ADS-B
Wed 05:06:24 AM 36.5020 -86.6280 59° Northeast 449 517 39,000  Level FlightAware ADS-B
Wed 05:07:22 AM 36.5630 -86.5020 59° Northeast 452 520 39,000  Level FlightAware ADS-B
Wed 05:07:49 AM 36.5931 -86.4389 59° Northeast 454 522 39,000  Level FlightAware ADS-B
Wed 05:08:20 AM 36.6260 -86.3715 59° Northeast 456 525 39,000  Level FlightAware ADS-B
Wed 05:08:50 AM 36.6589 -86.3017 60° Northeast 456 525 39,000  Level FlightAware ADS-B
Wed 05:09:21 AM 36.6925 -86.2317 59° Northeast 456 525 39,000  Level FlightAware ADS-B
Wed 05:09:53 AM 36.7266 -86.1616 59° Northeast 457 526 39,000  Level FlightAware ADS-B
Wed 05:10:24 AM 36.7604 -86.0894 60° Northeast 457 526 39,000  Level FlightAware ADS-B
Wed 05:10:54 AM 36.7929 -86.0213 59° Northeast 456 525 39,000  Level FlightAware ADS-B
Wed 05:11:34 AM 36.8359 -85.9310 59° Northeast 455 524 39,000  Level FlightAware ADS-B
Wed 05:12:44 AM 36.8970 -85.7990 60° Northeast 454 522 39,000  Level FlightAware ADS-B
Wed 05:13:41 AM 36.9650 -85.6580 59° Northeast 454 522 39,000  Level FlightAware ADS-B
Wed 05:14:21 AM 37.0133 -85.5538 60° Northeast 453 521 39,000  Level FlightAware ADS-B
Wed 05:14:51 AM 37.0450 -85.4859 60° Northeast 453 521 39,000  Level FlightAware ADS-B
Wed 05:15:23 AM 37.0784 -85.4159 59° Northeast 453 521 39,000  Level FlightAware ADS-B
Wed 05:15:56 AM 37.1138 -85.3389 60° Northeast 452 520 39,000  Level FlightAware ADS-B
Wed 05:16:26 AM 37.1455 -85.2711 60° Northeast 452 520 39,000  Level FlightAware ADS-B
Wed 05:16:57 AM 37.1775 -85.2011 60° Northeast 452 520 39,000  Level FlightAware ADS-B
Wed 05:17:27 AM 37.2094 -85.1330 60° Northeast 452 520 39,000  Level FlightAware ADS-B
Wed 05:17:58 AM 37.2410 -85.0650 60° Northeast 452 520 39,000  Level FlightAware ADS-B
Wed 05:18:28 AM 37.2724 -84.9967 60° Northeast 452 520 39,000  Level FlightAware ADS-B
Wed 05:18:58 AM 37.3043 -84.9262 60° Northeast 453 521 39,000  Level FlightAware ADS-B
Wed 05:19:29 AM 37.3365 -84.8578 59° Northeast 454 522 39,000  Level FlightAware ADS-B
Wed 05:20:01 AM 37.3707 -84.7823 60° Northeast 455 524 39,000  Level FlightAware ADS-B
Wed 05:20:34 AM 37.4045 -84.7089 60° Northeast 455 524 39,000  Level FlightAware ADS-B
Wed 05:21:15 AM 37.4474 -84.6151 60° Northeast 454 522 39,000  Level FlightAware ADS-B
Wed 05:21:48 AM 37.4820 -84.5373 61° Northeast 452 520 39,000  Level FlightAware ADS-B
Wed 05:22:33 AM 37.5290 -84.4367 59° Northeast 453 521 39,000  Level FlightAware ADS-B
Wed 05:23:21 AM 37.5750 -84.3340 61° Northeast 454 522 39,000  Level FlightAware ADS-B
Wed 05:23:57 AM 37.6100 -84.2560 60° Northeast 454 522 39,000  Level FlightAware ADS-B
Wed 05:24:46 AM 37.6570 -84.1510 60° Northeast 454 522 39,000  Level FlightAware ADS-B
Wed 05:25:19 AM 37.7100 -84.0620 53° Northeast 454 522 39,000  Level FlightAware ADS-B
Wed 05:26:18 AM 37.7770 -83.9470 54° Northeast 454 522 39,000  Level FlightAware ADS-B
Wed 05:27:18 AM 37.8410 -83.8390 53° Northeast 454 522 39,000  Level FlightAware ADS-B
Wed 05:27:54 AM 37.8800 -83.7740 53° Northeast 454 522 39,000  Level FlightAware ADS-B
Wed 05:28:44 AM 37.9340 -83.6830 53° Northeast 454 522 39,000  Level FlightAware ADS-B
Wed 05:29:18 AM 37.9700 -83.6220 53° Northeast 454 522 39,000  Level FlightAware ADS-B
Wed 05:29:59 AM 38.0590 -83.4556 56° Northeast 458 527 39,000  Level FlightAware ADS-B
Wed 05:30:15 AM 38.0741 -83.4169 64° Northeast 460 529 39,000  Level FlightAware ADS-B
Wed 05:31:19 AM 38.1118 -83.2518 74° East 466 536 39,000  Level FlightAware ADS-B
Wed 05:32:12 AM 38.1390 -83.1120 76° East 462 532 39,000  Level FlightAware ADS-B
Wed 05:32:56 AM 38.1620 -82.9970 76° East 459 528 39,000  Level FlightAware ADS-B
Wed 05:33:36 AM 38.1830 -82.8920 76° East 457 526 39,000  Level FlightAware ADS-B
Wed 05:34:18 AM 38.1890 -82.7760 86° East 465 535 39,000  Level FlightAware ADS-B
Wed 05:34:58 AM 38.1850 -82.6700 93° East 466 536 39,000  Level FlightAware ADS-B
Wed 05:35:40 AM 38.1810 -82.5530 92° East 459 528 39,000  Level FlightAware ADS-B
Wed 05:35:51 AM 38.1802 -82.5260 92° East 457 526 39,000  Level FlightAware ADS-B
Wed 05:36:14 AM 38.1816 -82.4625 88° East 448 516 39,000  Level FlightAware ADS-B
Wed 05:36:52 AM 38.2073 -82.3728 70° East 441 507 39,000  Level FlightAware ADS-B
Wed 05:37:27 AM 38.2521 -82.2995 52° Northeast 440 506 39,000  Level FlightAware ADS-B
Wed 05:37:31 AM 38.2563 -82.2935 48° Northeast 444 511 39,000  Level FlightAware ADS-B
Wed 05:38:03 AM 38.2991 -82.2294 50° Northeast 446 513 39,000  Level FlightAware ADS-B
Wed 05:39:06 AM 38.3830 -82.1000 50° Northeast 447 514 39,000  Level FlightAware ADS-B
Wed 05:39:56 AM 38.4480 -82.0030 49° Northeast 449 517 39,000  Level FlightAware ADS-B
Wed 05:40:38 AM 38.5060 -81.9150 50° Northeast 450 518 39,000  Level FlightAware ADS-B
Wed 05:41:20 AM 38.5620 -81.8270 51° Northeast 448 516 39,000  Level FlightAware ADS-B
Wed 05:42:00 AM 38.6150 -81.7460 50° Northeast 448 516 39,000  Level FlightAware ADS-B
Wed 05:42:41 AM 38.6690 -81.6640 50° Northeast 448 516 39,000  Level FlightAware ADS-B
Wed 05:43:23 AM 38.7240 -81.5780 51° Northeast 448 516 39,000  Level FlightAware ADS-B
Wed 05:44:09 AM 38.7840 -81.4860 50° Northeast 450 518 39,000  Level FlightAware ADS-B
Wed 05:44:48 AM 38.8350 -81.4050 51° Northeast 453 521 39,000  Level FlightAware ADS-B
Wed 05:45:31 AM 38.8940 -81.3140 50° Northeast 455 524 39,000  Level FlightAware ADS-B
Wed 05:46:12 AM 38.9490 -81.2280 51° Northeast 459 528 39,000  Level FlightAware ADS-B
Wed 05:46:53 AM 39.0050 -81.1410 50° Northeast 462 532 39,000  Level FlightAware ADS-B
Wed 05:47:35 AM 39.0620 -81.0520 50° Northeast 465 535 39,000  Level FlightAware ADS-B
Wed 05:48:15 AM 39.1170 -80.9660 50° Northeast 467 537 39,000  Level FlightAware ADS-B
Wed 05:49:02 AM 39.1820 -80.8620 51° Northeast 469 540 39,000  Level FlightAware ADS-B
Wed 05:49:40 AM 39.2330 -80.7820 51° Northeast 469 540 39,000  Level FlightAware ADS-B
Wed 05:50:07 AM 39.2700 -80.7230 51° Northeast 470 541 39,000  Level FlightAware ADS-B
Wed 05:50:53 AM 39.3320 -80.6250 51° Northeast 472 543 39,000  Level FlightAware ADS-B
Wed 05:51:32 AM 39.3880 -80.5370 51° Northeast 474 545 39,000  Level FlightAware ADS-B
Wed 05:52:12 AM 39.4430 -80.4460 52° Northeast 474 545 39,000  Level FlightAware ADS-B
Wed 05:52:57 AM 39.5040 -80.3490 51° Northeast 474 545 39,000  Level FlightAware ADS-B
Wed 05:53:37 AM 39.5590 -80.2610 51° Northeast 475 547 39,000  Level FlightAware ADS-B
Wed 05:54:22 AM 39.6190 -80.1630 52° Northeast 477 549 39,000  Level FlightAware ADS-B
Wed 05:55:02 AM 39.6760 -80.0710 51° Northeast 478 550 39,000  Level FlightAware ADS-B
Wed 05:55:44 AM 39.7350 -79.9770 51° Northeast 481 554 39,000  Level FlightAware ADS-B
Wed 05:56:30 AM 39.7990 -79.8730 51° Northeast 481 554 39,000  Level FlightAware ADS-B
Wed 05:57:12 AM 39.8580 -79.7750 52° Northeast 482 555 39,000  Level FlightAware ADS-B
Wed 05:57:54 AM 39.9160 -79.6820 51° Northeast 484 557 39,000  Level FlightAware ADS-B
Wed 05:58:34 AM 39.9720 -79.5880 52° Northeast 484 557 39,000  Level FlightAware ADS-B
Wed 05:59:14 AM 40.0280 -79.4960 51° Northeast 486 559 39,000  Level FlightAware ADS-B
Wed 05:59:54 AM 40.0830 -79.4060 51° Northeast 489 563 39,000  Level FlightAware ADS-B
Wed 06:02:08 AM 40.2710 -79.0920 52° Northeast 497 572 39,000  Level FlightAware ADS-B
Wed 06:02:46 AM 40.3250 -79.0020 52° Northeast 498 573 39,000  Level FlightAware ADS-B
Wed 06:03:32 AM 40.3910 -78.8920 52° Northeast 497 572 39,000  Level FlightAware ADS-B
Wed 06:04:14 AM 40.4500 -78.7930 52° Northeast 496 571 39,000  Level FlightAware ADS-B
Wed 06:04:51 AM 40.4980 -78.7090 53° Northeast 495 570 39,000  Level FlightAware ADS-B
Wed 06:06:16 AM 40.6140 -78.5120 52° Northeast 495 570 39,000  Level FlightAware ADS-B
Wed 06:07:01 AM 40.6740 -78.4120 52° Northeast 496 571 39,000  Level FlightAware ADS-B
Wed 06:07:56 AM 40.7550 -78.2720 53° Northeast 500 575 39,000  Level FlightAware ADS-B
Wed 06:08:36 AM 40.8110 -78.1750 53° Northeast 501 577 39,000  Level FlightAware ADS-B
Wed 06:09:21 AM 40.8750 -78.0660 52° Northeast 501 577 39,000 -424 Level FlightAware ADS-B
Wed 06:10:01 AM 40.9290 -77.9630 55° Northeast 502 578 38,400 -900 Descending FlightAware ADS-B
Wed 06:10:41 AM 40.9760 -77.8610 59° Northeast 501 577 37,800 -968 Descending FlightAware ADS-B
Wed 06:11:34 AM 41.0434 -77.7097 59° Northeast 502 578 36,900 -933 Descending FlightAware ADS-B
Wed 06:12:11 AM 41.0820 -77.6220 60° Northeast 503 579 36,400 -1,043 Descending FlightAware ADS-B
Wed 06:12:20 AM 41.0972 -77.5873 60° Northeast 505 581 36,100 -1,350 Descending FlightAware ADS-B
Wed 06:12:51 AM 41.1300 -77.5120 60° Northeast 509 586 35,500 -1,475 Descending FlightAware ADS-B
Wed 06:13:21 AM 41.1704 -77.4199 60° Northeast 511 588 34,600 -2,118 Descending FlightAware ADS-B
Wed 06:14:16 AM 41.2300 -77.2840 60° Northeast 500 575 32,500 -2,303 Descending FlightAware ADS-B
Wed 06:15:00 AM 41.2920 -77.1681 55° Northeast 497 572 30,800 -2,500 Descending FlightAware ADS-B
Wed 06:15:28 AM 41.3363 -77.1097 45° Northeast 486 559 29,500 -1,009 Descending FlightAware ADS-B
Wed 06:16:47 AM 41.4784 -76.9433 41° Northeast 519 597 29,000 -234 Descending FlightAware ADS-B
Wed 06:17:36 AM 41.5550 -76.8520 42° Northeast 521 600 29,000  Level FlightAware ADS-B
Wed 06:18:21 AM 41.6390 -76.7560 40° Northeast 527 606 29,000 -353 Level FlightAware ADS-B
Wed 06:19:01 AM 41.7130 -76.6680 42° Northeast 523 602 28,500 -918 Descending FlightAware ADS-B
Wed 06:19:46 AM 41.7900 -76.5780 41° Northeast 525 604 27,700 -1,129 Descending FlightAware ADS-B
Wed 06:20:26 AM 41.8680 -76.4850 42° Northeast 527 606 26,900 -1,200 Descending FlightAware ADS-B
Wed 06:21:06 AM 41.9350 -76.4040 42° Northeast 529 609 26,100 -1,200 Descending FlightAware ADS-B
Wed 06:21:46 AM 42.0070 -76.3180 42° Northeast 531 611 25,300 -944 Descending FlightAware ADS-B
Wed 06:22:35 AM 42.1080 -76.1970 42° Northeast 517 595 24,700 -847 Descending FlightAware ADS-B
Wed 06:23:11 AM 42.1650 -76.1070 49° Northeast 510 587 24,100 -500 Descending FlightAware ADS-B
Wed 06:23:59 AM 42.2160 -75.9720 63° Northeast 490 564 24,000 -68 Descending FlightAware ADS-B
Wed 06:24:39 AM 42.2540 -75.8640 65° Northeast 491 565 24,000 -293 Level FlightAware ADS-B
Wed 06:25:21 AM 42.2920 -75.7470 66° East 485 558 23,600 -1,256 Descending FlightAware ADS-B
Wed 06:26:05 AM 42.3260 -75.6210 70° East 492 566 22,200 -1,091 Descending FlightAware ADS-B
Wed 06:26:49 AM 42.3580 -75.4890 72° East 494 568 22,000 -143 Descending FlightAware ADS-B
Wed 06:27:29 AM 42.3840 -75.3740 73° East 495 570 22,000  Level FlightAware ADS-B
Wed 06:28:09 AM 42.4130 -75.2560 72° East 495 570 22,000 -675 Level FlightAware ADS-B
Wed 06:28:49 AM 42.4390 -75.1450 72° East 487 560 21,100 -684 Descending FlightAware ADS-B
Wed 06:29:28 AM 42.4620 -75.0480 72° East 487 560 21,100  Level FlightAware ADS-B
Wed 06:30:32 AM 42.5000 -74.8900 72° East 487 560 21,100  Level FlightAware ADS-B
Wed 06:31:08 AM 42.5210 -74.8010 72° East 487 560 21,100  Level FlightAware ADS-B
Wed 06:31:55 AM 42.5490 -74.6850 72° East 487 560 21,100  Level FlightAware ADS-B
Wed 06:32:31 AM 42.5710 -74.5960 71° East 487 560 21,100 -5,288 Level FlightAware ADS-B
Wed 06:33:53 AM 42.5511 -74.3481 71° East 329 379 10,700 -5,203 Descending Boston Center
Wed 06:34:54 AM 42.5883 -74.2450 64° Northeast 296 341 8,700 -2,115 Descending Boston Center
Wed 06:35:55 AM 42.6189 -74.1414 68° East 298 343 6,400 -1,934 Descending Boston Center
Wed 06:36:55 AM 42.6433 -74.0378 72° East 288 331 4,800 -1,350 Descending Boston Center
Wed 06:37:55 AM 42.6300 -73.9497 102° East 255 293 3,700 -900 Descending Boston Center
Wed 06:38:55 AM 42.6036 -73.8928 122° Southeast 233 268 3,000 -450 Descending Boston Center
Wed 06:39:55 AM 42.5836 -73.8247 112° Southeast 211 243 2,800 -500 Descending Boston Center
Wed 06:40:55 AM 42.6297 -73.8031 19° North 131 151 2,000 -732 Descending Boston Center
Wed 06:41:58 AM 42.6839 -73.8069 357° North 153 176 1,300 -629 Descending Boston Center
Wed 06:42:59 AM 42.7194 -73.8078 359° North 119 137 700 -590 Descending Boston Center

Login

Don't have an account? Register now (free) for customized features, flight alerts, and more!